AirNav   Pilot Hours Calculator
 
 1368 users online  

6NC8 Marchmont Plantation Airpark
Advance, North Carolina, USA

GOING TO ADVANCE?


FAA INFORMATION EFFECTIVE 07 NOVEMBER 2019

Location

FAA Identifier: 6NC8
Lat/Long: 35-56-17.4930N 080-23-04.1950W
35-56.291550N 080-23.069917W
35.9381925,-80.3844986
(estimated)
Elevation: 730 ft. / 223 m (estimated)
Variation: 06W (1985)
From city: 1 mile E of ADVANCE, NC
Time zone: UTC -5 (UTC -4 during Daylight Saving Time)
Zip code: 27006

Airport Operations

Airport use: Private use. Permission required prior to landing
Activation date: 01/1987
Control tower: no
ARTCC: ATLANTA CENTER
FSS: RALEIGH FLIGHT SERVICE STATION
Attendance: UNATNDD
Wind indicator: yes
Segmented circle: no

Airport Communications

WX AWOS-3 at EXX (10 nm SE): 119.825 (336-956-2967)
WX ASOS at INT (14 nm NE): PHONE 336-661-3096
WX AWOS-3 at RUQ (19 nm S): 118.175 (704-637-6197)

Nearby radio navigation aids

VOR radial/distance  VOR name  Freq  Var
GSOr255/20.8GREENSBORO VORTAC116.2003W
LIBr284/38.3LIBERTY VORTAC113.0003W

 
NDB name  Hdg/Dist  Freq  Var  ID
REENO240/13.231707WIN .. -.
ROVDY029/13.327506WRU .-. ..-
ZEPHYR151/27.832608WZEF --.. . ..-.

Airport Services

Runway Information

Runway 6/24

Dimensions: 2500 x 60 ft. / 762 x 18 m
Surface: turf
RUNWAY 6  RUNWAY 24
Traffic pattern: leftleft
Obstructions: treesnone

Airport Ownership and Management from official FAA records

Ownership: Privately-owned
Owner: MARCHEMONT PLANTATION AIRPARK
PO BOX 2201
ADVANCE, NC 27006
Phone 401 602-5131
Manager: DR. J. W. EUBANKS
PO BOX 148
ADVANCE, NC 27006
Phone 336-998-2600

Airport Operational Statistics

Aircraft based on the field: 9
Single engine airplanes: 9
    

Additional Remarks

LIGHT WIND PREF RWY LAND 24 TO 6.
NO TRNG / NO TOUCH & GOES
TRICOLOR VASI LFT SIDE RWY 24 ACTIVATE WITH LIGHTS 5 CLICKS 122.9
FOR CD CTC ATLANTA ARTCC AT 770-210-7692.

Instrument Procedures

There are no published instrument procedures at 6NC8.

Some nearby airports with instrument procedures:

8A7 - Twin Lakes Airport (4 nm W)
KEXX - Davidson County Airport (10 nm SE)
KINT - Smith Reynolds Airport (14 nm NE)
KRUQ - Mid-Carolina Regional Airport (19 nm S)
KGSO - Piedmont Triad International Airport (24 nm NE)
 
Loc | Ops | Rwys | IFR | FBO | Links
Com | Nav | Svcs | Stats | Notes
Area around 6NC8 (Marchmont Plantation Airpark)
 
Road maps at: MapQuest Bing Google
 
Aerial photo
WARNING: Photo may not be current or correct
Aerial photo of 6NC8 (Marchmont Plantation Airpark)
Do you have a better or more recent aerial photo of Marchmont Plantation Airpark that you would like to share? If so, please send us your photo.

 
Sectional chart

 
Airport distance calculator
Flying to Marchmont Plantation Airpark? Find the distance to fly.

From to 6NC8

Sunrise and sunset
Times for 15-Nov-2019
 Local
(UTC-5)
 Zulu
(UTC)
Morning civil twilight06:3211:32
Sunrise06:5911:59
Sunset17:1322:13
Evening civil twilight17:4122:41

Current date and time
Zulu (UTC)  15-Nov-2019 18:32:34
Local (UTC-5)  15-Nov-2019 13:32:34
 
METAR
KEXX 
10nm SE 
151755Z AUTO 04007KT 10SM BKN120 10/M06 A3015 RMK AO2 T00951061 10095 20040
KINT 
14nm NE 
151754Z 02007KT 10SM CLR 10/M05 A3017 RMK AO2 SLP219 T01001050 10100 20033 58020
KRUQ 
18nm S 
151755Z AUTO 00000KT 10SM -RA SCT090 OVC110 08/M02 A3016 RMK AO2 T00811022 10081 20028
TAF
KINT 
14nm NE 
151740Z 1518/1618 02008KT P6SM SCT090 OVC200 FM161200 03012G24KT P6SM BKN080 OVC200
NOTAMs
Click for the latest NOTAMs
NOTAMs are issued by the DoD/FAA and will open in a separate window not controlled by AirNav.

 

 
 

Would you like to see your business listed on this page?

 If your business provides an interesting product or service to pilots, flight crews, aircraft, or users of the Marchmont Plantation Airpark, you should consider listing it here.  To start the listing process, click on the button below
 
Add a business
 

Other Pages about Marchmont Plantation Airpark

Update a link
 
Copyright © AirNav, LLC. All rights reserved. Privacy Policy  Contact